Terminal Aerodrome Forecast
Issued by NWS

Home | Current Version | Previous Version | Text Only | Print | Product List | Glossary On
Versions: 1 2 3 4 5 6 7 8 9 10 11 12 13 14 15 16 17 18 19
000
FTAK31 PAFA 211735
TAFAOT
TAF
PAOT 211735Z 2118/2218 09016KT 1 1/2SM -SN BR OVC015
     FM212100 09016KT 2SM -SHSN BR OVC015
     FM220000 09012KT 6SM -SHSN BR SCT015 BKN025 BKN050
     FM220300 09010KT P6SM SCT025 BKN050 BKN200=

USA.gov is the U.S. government's official web portal to all federal, state and local government web resources and services.